Skip to main content.

Regional Weather Summary







Station Name-Location
 
Time
 
Baro
Pressure
Outside
Temp
 Temp
Max
Temp
Min
Dew
Point
RH
%
Wind
Speed
Average
Wind Dir
Wind Max
Last Hr
Wind
Gust Max
Rain
Today
Rain
Last Hr
Rain Rate
in/hr
Rain
Month
Rain
Year
Vermilionweather-Near Lake Vermilion07:41:1029.82 inHg 70.5°F   70.5°F70.5°F60.8°F71%0.0 mph North0.0 mph 0.0 mph 0.00in0.00in0.00in/hr1.56in17.06in
EMA HQ's-Home Gardens07:41:190.00 inHg     78.3°F 83.5°F77.4°F73.4°F85%0.0 mph North0.0 mph 8.1 mph 0.00in0.00in0.00in/hr1.35in17.59in
Mahomet07:41:1029.97 inHg 73.9°F    85.1°F73.6°F70.9°F90%0.8 mph North6.9 mph 19.9 mph 0.00in0.00in0.00in/hr1.34in17.19in

Version 2.12 6th August 2012

If you own a personal weather station
and would like to have your data displayed here,
use the "Contact admin" link at the bottom of the page
to find out how.

For full weather information visit the individual websites above
This page was created by Clevedon Weather using some basic php scripts from TNET Weather.
The script for displaying the data has been produced by Clevedon Weather but has been modified by Vermilionweather.com for it's own use.



Nearby METAR Reports

Nearby METAR Reports

 

KDNV - Danville, Illinois, USA
Distance from station: 0 0mi, 0km
Updated: Wed, 06-Jul-2022 7:35am CDT
Partly Cloudy
Partly Cloudy
 Wind from calm
Wind: Calm
Temperature: 77°F , 25°C
Dew Point: 72°F , 22°C
Humidity: 83%
Barometer: 29.92 inHg , 1013.2 hPa
Clouds: Partly Cloudy
Visibility: 10 miles , 16 km
Cloud details: Partly Cloudy 11000 ft
2022/07/06 12:35 KDNV 061235Z AUTO 00000KT 10SM SCT110 25/22 A2992 RMK AO2 T02460218
KTIP - Rantoul, Illinois, USA
Distance from station: W 30mi, 48km
Updated: Wed, 06-Jul-2022 7:35am CDT
Partly Cloudy
Partly Cloudy
 Wind from calm
Wind: Calm
Temperature: 73°F , 23°C
Dew Point: 72°F , 22°C
Humidity: 94%
Barometer: 29.92 inHg , 1013.2 hPa
Clouds: Partly Cloudy
Visibility: 10 miles , 16 km
Cloud details: Partly Cloudy 11000 ft
2022/07/06 12:35 KTIP 061235Z AUTO 00000KT 10SM SCT110 23/22 A2992 RMK AO2 T02250220
 
KPRG - Paris, Illinois, USA
Distance from station: S 35mi, 56km
Updated: Wed, 06-Jul-2022 7:35am CDT
Clear
Clear
 Wind from N
Wind: N 3 mph , 6 km/h
Temperature: 82°F , 28°C
Heat Index: 91°F , 33°C
Dew Point: 79°F , 26°C
Humidity: 89%
Barometer: 29.91 inHg , 1012.9 hPa
Clouds: Clear
Visibility: 10 miles , 16 km
2022/07/06 12:35 KPRG 061235Z AUTO 36003KT 10SM CLR 28/26 A2991 RMK AO2 T02840257
KCMI - Champaign/Urbana, Illinois, USA
Distance from station: WSW 37mi, 60km
Updated: Wed, 06-Jul-2022 6:53am CDT
Few Clouds
Few Clouds
 Wind from WNW
Wind: WNW 5 mph , 7 km/h
Temperature: 77°F , 25°C
Dew Point: 73°F , 23°C
Humidity: 89%
Barometer: 29.91 inHg , 1012.9 hPa
Clouds: Few Clouds
Visibility: 10 miles , 16 km
Cloud details: Few Clouds 12000 ft
2022/07/06 11:53 KCMI 061153Z 29004KT 10SM FEW120 25/23 A2991 RMK AO2 SLP119 T02500233 10289 20244 51014
 
KLAF - Lafayette, Indiana, USA
Distance from station: ENE 38mi, 61km
Updated: Wed, 06-Jul-2022 6:54am CDT
Few Clouds
Few Clouds
 Wind from calm
Wind: Calm
Temperature: 73°F , 23°C
Dew Point: 72°F , 22°C
Humidity: 94%
Barometer: 29.89 inHg , 1012.2 hPa
Clouds: Few Clouds
Visibility: 10 miles , 16 km
Cloud details: Few Clouds 11000 ft
2022/07/06 11:54 KLAF 061154Z 00000KT 10SM FEW110 23/22 A2989 RMK AO2 SLP117 60015 70015 T02280217 10283 20222 51018 $
KCFJ - Crawfordsville, Indiana, USA
Distance from station: ESE 39mi, 63km
Updated: Wed, 06-Jul-2022 7:35am CDT
Clear
Clear
 Wind from SSW
Wind: SSW 3 mph , 6 km/h
Temperature: 79°F , 26°C
Dew Point: 64°F , 18°C
Humidity: 61%
Barometer: 29.90 inHg , 1012.5 hPa
Clouds: Clear
Visibility: 10 miles , 16 km
2022/07/06 12:35 KCFJ 061235Z AUTO 21003KT 10SM CLR 26/18 A2990 RMK AO2 T02560182

Metar display script from Saratoga-Weather.org

Go To Top